Time;durP1;ratioP1;P1;durP2;ratioP2;P2;SDS_P1;SDS_P2;PMS_P1;PMS_P2;Temp;Humidity;BMP_temperature;BMP_pressure;BME280_temperature;BME280_humidity;BME280_pressure;Samples;Min_cycle;Max_cycle;Signal;HPM_P1;HPM_P2
2023/04/21 00:00:00;;;;;;;;;;;;;;;9.37;71.79;92205.75;2058480;69;20050;-75
2023/04/21 00:02:26;;;;;;;;;;;;;;;9.43;70.67;92211.72;2058113;69;20077;-75
2023/04/21 00:04:52;;;;;;;;;;;;;;;9.47;70.62;92210.47;2035742;70;20080;-74
2023/04/21 00:07:18;;;;;;;;;;;;;;;9.39;71.33;92207.94;2058070;69;20120;-76
2023/04/21 00:13:12;;;;;;;;;;;;;;;9.39;71.79;92208.69;2058237;69;20053;-75
2023/04/21 00:15:41;;;;;;;;;;;;;;;9.39;71.47;92214.31;2038947;69;20426;-75
2023/04/21 00:18:06;;;;;;;;;;;;;;;9.31;71.81;92201.88;2058116;69;20533;-76
2023/04/21 00:20:34;;;;;;;;;;;;;;;9.25;72.97;92199.44;2038804;69;20043;-74
2023/04/21 00:22:59;;;;;;;;;;;;;;;9.27;72.09;92198.84;2039178;70;20110;-74
2023/04/21 00:25:29;;;;;;;;;;;;;;;9.27;71.80;92196.03;2038855;70;20126;-77
2023/04/21 00:27:57;;;;;;;;;;;;;;;9.19;73.00;92195.56;2038993;69;20157;-75
2023/04/21 00:30:24;;;;;;;;;;;;;;;9.14;71.41;92197.41;2035571;70;20564;-74
2023/04/21 00:32:49;;;;;;;;;;;;;;;9.04;71.91;92197.53;2038757;70;20143;-73
2023/04/21 00:35:17;;;;;;;;;;;;;;;9.04;71.96;92197.53;2058011;69;20185;-75
2023/04/21 00:37:42;;;;;;;;;;;;;;;8.95;72.18;92192.81;2057699;69;20073;-75
2023/04/21 00:40:10;;;;;;;;;;;;;;;9.04;70.57;92205.25;2038680;69;20538;-75
2023/04/21 00:42:39;;;;;;;;;;;;;;;8.97;70.74;92212.56;2057362;69;20046;-76
2023/04/21 00:45:10;;;;;;;;;;;;;;;8.93;71.34;92222.81;2058136;69;20050;-76
2023/04/21 00:47:43;;;;;;;;;;;;;;;9.00;71.59;92225.38;2058320;69;20092;-76
2023/04/21 00:50:13;;;;;;;;;;;;;;;9.12;71.03;92219.75;2036470;69;20054;-76
2023/04/21 00:52:47;;;;;;;;;;;;;;;9.13;70.94;92232.44;2036017;70;20083;-76
2023/04/21 00:55:13;;;;;;;;;;;;;;;9.04;71.92;92234.03;2039067;70;20126;-76
2023/04/21 00:57:41;;;;;;;;;;;;;;;9.07;72.50;92232.06;2038591;69;20080;-77
2023/04/21 01:00:10;;;;;;;;;;;;;;;9.06;72.40;92234.16;2038864;70;20092;-76
2023/04/21 01:02:36;;;;;;;;;;;;;;;9.08;71.59;92239.91;2039153;70;20048;-76
2023/04/21 01:05:12;;;;;;;;;;;;;;;9.02;71.93;92227.56;2038991;70;20056;-77
2023/04/21 01:07:39;;;;;;;;;;;;;;;9.11;71.48;92230.22;2039097;70;20060;-74
2023/04/21 01:10:05;;;;;;;;;;;;;;;9.15;71.65;92232.56;2039083;69;20116;-75
2023/04/21 01:16:01;;;;;;;;;;;;;;;9.09;73.01;92229.41;2038814;70;20504;-76
2023/04/21 01:18:26;;;;;;;;;;;;;;;9.14;71.81;92222.66;2035584;70;20048;-77
2023/04/21 01:21:19;;;;;;;;;;;;;;;9.14;71.97;92219.88;2038872;69;20415;-78
2023/04/21 01:23:46;;;;;;;;;;;;;;;9.05;72.65;92223.53;2031117;70;20060;-77
2023/04/21 01:26:12;;;;;;;;;;;;;;;9.07;72.46;92218.03;2028232;70;20073;-77
2023/04/21 01:28:39;;;;;;;;;;;;;;;9.06;72.00;92222.19;2030998;70;20061;-76
2023/04/21 01:38:17;;;;;;;;;;;;;;;9.12;73.01;92226.09;2030967;70;20087;-76
2023/04/21 01:40:50;;;;;;;;;;;;;;;9.13;71.89;92232.44;2030884;70;20098;-76
2023/04/21 01:43:17;;;;;;;;;;;;;;;9.10;72.49;92234.38;2031159;70;20126;-75
2023/04/21 01:45:43;;;;;;;;;;;;;;;9.19;71.82;92244.03;2031123;70;20066;-74
2023/04/21 01:48:09;;;;;;;;;;;;;;;9.20;71.37;92247.56;2028796;70;20056;-72
2023/04/21 01:54:06;;;;;;;;;;;;;;;9.28;71.87;92250.84;2031221;70;20574;-75
2023/04/21 01:56:32;;;;;;;;;;;;;;;9.21;72.04;92246.22;2031227;70;20160;-75
2023/04/21 01:58:59;;;;;;;;;;;;;;;9.18;72.24;92255.88;2028497;70;20056;-73
2023/04/21 02:01:24;;;;;;;;;;;;;;;9.17;72.31;92252.34;2040220;69;20140;-76
2023/04/21 02:03:53;;;;;;;;;;;;;;;9.11;73.09;92247.09;2036384;69;20486;-77
2023/04/21 02:06:20;;;;;;;;;;;;;;;9.21;72.74;92260.25;2058358;69;20066;-75
2023/04/21 02:12:18;;;;;;;;;;;;;;;9.13;72.73;92257.72;2057953;69;20461;-72
2023/04/21 02:14:46;;;;;;;;;;;;;;;9.15;72.78;92257.81;2057948;69;20046;-76
2023/04/21 02:17:17;;;;;;;;;;;;;;;9.14;72.67;92265.53;2057846;69;20133;-76
2023/04/21 02:19:46;;;;;;;;;;;;;;;9.23;71.54;92272.34;2058293;69;20137;-77
2023/04/21 02:22:13;;;;;;;;;;;;;;;9.25;71.28;92266.09;2057845;69;20745;-76
2023/04/21 02:24:39;;;;;;;;;;;;;;;9.08;72.52;92251.13;2058201;69;20077;-76
2023/04/21 02:27:06;;;;;;;;;;;;;;;9.18;71.59;92244.66;2058301;69;20200;-76
2023/04/21 02:29:32;;;;;;;;;;;;;;;9.13;71.31;92252.81;2057859;69;20172;-76
2023/04/21 02:31:58;;;;;;;;;;;;;;;8.91;72.77;92255.03;2038389;69;20082;-76
2023/04/21 02:34:30;;;;;;;;;;;;;;;8.96;72.72;92250.41;2058290;69;20082;-76
2023/04/21 02:37:03;;;;;;;;;;;;;;;9.08;71.38;92253.22;2058722;69;20129;-77
2023/04/21 02:39:29;;;;;;;;;;;;;;;9.10;72.64;92250.50;2051040;69;20099;-77
2023/04/21 02:41:57;;;;;;;;;;;;;;;9.09;71.88;92252.59;2038883;69;20400;-75
2023/04/21 02:44:25;;;;;;;;;;;;;;;9.05;72.67;92246.00;2039133;70;20052;-76
2023/04/21 02:46:54;;;;;;;;;;;;;;;9.05;72.39;92254.44;2051658;69;20155;-75
2023/04/21 02:49:19;;;;;;;;;;;;;;;8.99;71.79;92256.88;2039115;70;20047;-76
2023/04/21 02:51:46;;;;;;;;;;;;;;;8.87;72.44;92243.56;2035655;70;20083;-76
2023/04/21 02:54:11;;;;;;;;;;;;;;;8.87;71.96;92246.38;2039174;69;20175;-77
2023/04/21 02:56:37;;;;;;;;;;;;;;;8.82;72.36;92253.09;2038935;69;20507;-77
2023/04/21 02:59:02;;;;;;;;;;;;;;;8.77;71.91;92254.19;2051703;70;20479;-76
2023/04/21 03:01:28;;;;;;;;;;;;;;;8.77;72.24;92248.59;2049019;70;20059;-73
2023/04/21 03:03:57;;;;;;;;;;;;;;;8.74;72.27;92247.00;2039052;70;20123;-75
2023/04/21 03:06:22;;;;;;;;;;;;;;;8.76;71.45;92241.50;2051883;69;20420;-75
2023/04/21 03:08:48;;;;;;;;;;;;;;;8.70;72.03;92235.53;2035584;70;20063;-76
2023/04/21 03:11:13;;;;;;;;;;;;;;;8.69;71.86;92241.75;2054454;69;20143;-75
2023/04/21 03:13:39;;;;;;;;;;;;;;;8.66;72.18;92243.72;2051733;69;20044;-75
2023/04/21 03:16:04;;;;;;;;;;;;;;;8.70;72.29;92240.41;2038912;70;20044;-75
2023/04/21 03:18:33;;;;;;;;;;;;;;;8.69;72.15;92250.16;2054611;69;20453;-77
2023/04/21 03:20:59;;;;;;;;;;;;;;;8.64;72.90;92249.91;2039071;70;20043;-76
2023/04/21 03:23:24;;;;;;;;;;;;;;;8.69;73.12;92248.09;2035832;70;20099;-76
2023/04/21 03:25:51;;;;;;;;;;;;;;;8.71;73.42;92245.44;2039394;70;20076;-75
2023/04/21 03:28:16;;;;;;;;;;;;;;;8.73;72.88;92239.19;2051814;69;20155;-77
2023/04/21 03:30:42;;;;;;;;;;;;;;;8.85;72.05;92253.97;2039111;70;20107;-77
2023/04/21 03:33:08;;;;;;;;;;;;;;;8.52;73.32;92251.25;2051765;70;20060;-71
2023/04/21 03:35:34;;;;;;;;;;;;;;;8.51;73.99;92253.31;2051369;69;20063;-76
2023/04/21 03:37:59;;;;;;;;;;;;;;;8.61;73.74;92256.78;2051789;70;20048;-76
2023/04/21 03:40:25;;;;;;;;;;;;;;;8.73;72.95;92253.94;2039060;70;20559;-75
2023/04/21 03:42:50;;;;;;;;;;;;;;;8.80;72.74;92263.47;2051880;70;20490;-76
2023/04/21 03:45:21;;;;;;;;;;;;;;;8.74;72.93;92269.44;2038919;70;20068;-76
2023/04/21 03:47:47;;;;;;;;;;;;;;;8.83;71.97;92265.78;2038869;70;20059;-76
2023/04/21 03:50:12;;;;;;;;;;;;;;;8.75;72.48;92267.38;2039039;70;20075;-76
2023/04/21 03:52:38;;;;;;;;;;;;;;;8.43;74.02;92280.16;2038942;70;20048;-76
2023/04/21 03:55:04;;;;;;;;;;;;;;;8.45;73.56;92274.69;2051530;69;20079;-76
2023/04/21 03:57:29;;;;;;;;;;;;;;;8.52;74.35;92277.25;2038939;70;20068;-76
2023/04/21 03:59:55;;;;;;;;;;;;;;;8.57;73.78;92283.84;2038681;70;20166;-76
2023/04/21 04:02:20;;;;;;;;;;;;;;;8.65;72.72;92287.84;2038745;70;20051;-75
2023/04/21 04:04:46;;;;;;;;;;;;;;;8.75;72.67;92281.41;2038898;70;20052;-75
2023/04/21 04:07:11;;;;;;;;;;;;;;;8.74;72.08;92283.47;2038902;70;20107;-76
2023/04/21 04:09:37;;;;;;;;;;;;;;;8.35;73.70;92291.59;2051667;69;20058;-76
2023/04/21 04:12:04;;;;;;;;;;;;;;;8.70;71.55;92288.84;2038899;70;20080;-75
2023/04/21 04:14:29;;;;;;;;;;;;;;;8.62;73.43;92280.69;2038980;70;20052;-76
2023/04/21 04:16:55;;;;;;;;;;;;;;;8.72;73.44;92279.81;2038873;70;20150;-76
2023/04/21 04:19:20;;;;;;;;;;;;;;;8.81;71.93;92282.50;2039000;70;20052;-76
2023/04/21 04:21:46;;;;;;;;;;;;;;;8.70;72.38;92285.31;2039054;70;20147;-76
2023/04/21 04:24:12;;;;;;;;;;;;;;;8.70;72.63;92288.09;2038924;70;20396;-76
2023/04/21 04:26:38;;;;;;;;;;;;;;;8.75;72.15;92284.97;2038571;69;20060;-76
2023/04/21 04:29:04;;;;;;;;;;;;;;;8.80;71.57;92281.06;2039319;70;20423;-76
2023/04/21 04:31:31;;;;;;;;;;;;;;;8.77;72.34;92287.16;2040167;70;20478;-76
2023/04/21 04:33:56;;;;;;;;;;;;;;;8.82;71.73;92286.06;2038890;70;20110;-74
2023/04/21 04:36:23;;;;;;;;;;;;;;;8.75;71.98;92279.34;2038916;70;20559;-77
2023/04/21 04:38:48;;;;;;;;;;;;;;;8.77;73.25;92287.88;2038833;70;20074;-77
2023/04/21 04:41:15;;;;;;;;;;;;;;;8.75;72.81;92287.00;2038891;70;20460;-76
2023/04/21 04:43:41;;;;;;;;;;;;;;;8.78;72.35;92291.41;2038890;70;20059;-77
2023/04/21 04:46:08;;;;;;;;;;;;;;;8.74;72.79;92291.16;2038813;70;20052;-77
2023/04/21 04:48:33;;;;;;;;;;;;;;;8.68;72.51;92291.53;2038874;70;20431;-78
2023/04/21 04:50:59;;;;;;;;;;;;;;;8.70;72.67;92296.53;2038811;70;20048;-77
2023/04/21 04:53:26;;;;;;;;;;;;;;;8.62;72.96;92302.41;2039005;70;20139;-78
2023/04/21 04:55:52;;;;;;;;;;;;;;;8.60;72.83;92296.66;2038907;69;20052;-77
2023/04/21 04:58:18;;;;;;;;;;;;;;;8.63;72.84;92303.84;2038914;70;20044;-77
2023/04/21 05:00:43;;;;;;;;;;;;;;;8.59;72.68;92300.81;2039157;70;20111;-78
2023/04/21 05:03:09;;;;;;;;;;;;;;;8.60;72.46;92305.06;2038727;70;20052;-77
2023/04/21 05:05:34;;;;;;;;;;;;;;;8.61;72.84;92304.47;2038756;70;20072;-74
2023/04/21 05:08:00;;;;;;;;;;;;;;;8.67;72.14;92306.19;2038624;70;20052;-76
2023/04/21 05:10:25;;;;;;;;;;;;;;;8.75;71.89;92306.66;2038855;70;20119;-76
2023/04/21 05:12:50;;;;;;;;;;;;;;;8.78;71.24;92316.69;2038847;70;20087;-73
2023/04/21 05:15:16;;;;;;;;;;;;;;;8.69;72.14;92309.84;2039252;70;20419;-76
2023/04/21 05:17:41;;;;;;;;;;;;;;;8.64;72.49;92310.94;2038698;70;20306;-77
2023/04/21 05:20:07;;;;;;;;;;;;;;;8.60;72.76;92313.47;2038863;70;20170;-76
2023/04/21 05:22:36;;;;;;;;;;;;;;;8.64;72.11;92322.88;2038953;70;20155;-75
2023/04/21 05:25:02;;;;;;;;;;;;;;;8.60;72.31;92324.69;2038924;70;20084;-77
2023/04/21 05:27:28;;;;;;;;;;;;;;;8.70;72.03;92325.31;2038774;70;20083;-74
2023/04/21 05:29:54;;;;;;;;;;;;;;;8.61;72.47;92328.97;2038768;70;20068;-73
2023/04/21 05:32:19;;;;;;;;;;;;;;;8.68;71.84;92332.91;2038668;70;20083;-74
2023/04/21 05:34:45;;;;;;;;;;;;;;;8.64;72.80;92339.00;2038848;70;20059;-75
2023/04/21 05:37:11;;;;;;;;;;;;;;;8.70;72.32;92338.63;2038573;70;20122;-74
2023/04/21 05:39:36;;;;;;;;;;;;;;;8.75;72.60;92343.13;2038591;70;20063;-77
2023/04/21 05:42:02;;;;;;;;;;;;;;;8.79;72.17;92334.97;2038877;70;20075;-74
2023/04/21 05:44:27;;;;;;;;;;;;;;;8.84;72.96;92340.25;2038766;70;20068;-77
2023/04/21 05:46:53;;;;;;;;;;;;;;;8.96;72.11;92339.50;2038465;70;20477;-77
2023/04/21 05:49:18;;;;;;;;;;;;;;;9.03;71.66;92342.09;2038577;70;20471;-76
2023/04/21 05:51:44;;;;;;;;;;;;;;;9.04;72.70;92337.19;2038567;70;20155;-76
2023/04/21 05:54:09;;;;;;;;;;;;;;;9.25;71.33;92341.94;2038544;69;20048;-76
2023/04/21 05:56:35;;;;;;;;;;;;;;;9.24;71.45;92335.59;2051317;70;20091;-76
2023/04/21 05:59:00;;;;;;;;;;;;;;;8.94;72.67;92337.31;2038579;70;20082;-72
2023/04/21 06:01:26;;;;;;;;;;;;;;;8.67;73.59;92337.78;2051150;69;20049;-77
2023/04/21 06:03:51;;;;;;;;;;;;;;;8.55;74.67;92337.75;2038522;70;20052;-76
2023/04/21 06:06:17;;;;;;;;;;;;;;;8.53;74.94;92336.91;2038410;70;20419;-74
2023/04/21 06:08:42;;;;;;;;;;;;;;;8.36;75.19;92337.94;2038558;70;20389;-75
2023/04/21 06:11:07;;;;;;;;;;;;;;;8.75;74.87;92340.34;2038516;70;20419;-75
2023/04/21 06:13:33;;;;;;;;;;;;;;;8.82;73.34;92331.69;2038808;70;20044;-74
2023/04/21 06:15:59;;;;;;;;;;;;;;;8.68;73.74;92327.28;2038260;70;20511;-74
2023/04/21 06:18:27;;;;;;;;;;;;;;;8.25;75.46;92333.03;2038481;70;20122;-74
2023/04/21 06:20:53;;;;;;;;;;;;;;;8.70;74.80;92327.41;2054538;69;20075;-73
2023/04/21 06:23:19;;;;;;;;;;;;;;;8.88;73.64;92323.63;2039167;70;20087;-72
2023/04/21 06:25:44;;;;;;;;;;;;;;;8.74;73.65;92322.75;2040826;70;20048;-74
2023/04/21 06:28:10;;;;;;;;;;;;;;;8.67;74.36;92323.75;2041339;70;20143;-72
2023/04/21 06:30:35;;;;;;;;;;;;;;;8.72;73.94;92316.31;2039544;70;20427;-74
2023/04/21 06:33:01;;;;;;;;;;;;;;;9.05;72.91;92313.38;2037606;70;20052;-76
2023/04/21 06:35:26;;;;;;;;;;;;;;;9.25;72.51;92311.78;2039142;70;20055;-74
2023/04/21 06:37:52;;;;;;;;;;;;;;;9.34;72.81;92313.00;2038927;70;20099;-73
2023/04/21 06:40:17;;;;;;;;;;;;;;;9.58;70.83;92313.69;2039060;70;20055;-76
2023/04/21 06:42:43;;;;;;;;;;;;;;;9.79;71.40;92321.22;2038766;70;20067;-76
2023/04/21 06:45:08;;;;;;;;;;;;;;;10.01;71.64;92318.94;2039002;70;20052;-75
2023/04/21 06:47:34;;;;;;;;;;;;;;;10.19;70.88;92331.94;2039392;70;20498;-74
2023/04/21 06:49:59;;;;;;;;;;;;;;;10.23;70.48;92328.63;2039102;70;20052;-74
2023/04/21 06:52:25;;;;;;;;;;;;;;;10.60;69.33;92319.41;2039062;70;20059;-75
2023/04/21 06:54:50;;;;;;;;;;;;;;;10.56;68.63;92324.81;2039100;70;20147;-74
2023/04/21 06:57:16;;;;;;;;;;;;;;;10.94;67.46;92323.34;2039202;70;20044;-73
2023/04/21 06:59:42;;;;;;;;;;;;;;;11.41;67.35;92323.72;2039055;70;20048;-76
2023/04/21 07:02:07;;;;;;;;;;;;;;;11.48;65.89;92324.03;2039353;70;20130;-77
2023/04/21 07:04:33;;;;;;;;;;;;;;;11.69;64.41;92315.97;2039138;70;20059;-76
2023/04/21 07:06:58;;;;;;;;;;;;;;;12.06;63.55;92322.75;2058277;69;20237;-76
2023/04/21 07:09:24;;;;;;;;;;;;;;;12.36;64.50;92324.19;2054816;69;20057;-74
2023/04/21 07:11:49;;;;;;;;;;;;;;;12.50;62.30;92312.84;2058315;69;20057;-75
2023/04/21 07:14:15;;;;;;;;;;;;;;;12.51;58.50;92310.75;2058218;69;20085;-77
2023/04/21 07:16:40;;;;;;;;;;;;;;;12.31;59.02;92319.72;2058278;69;20050;-75
2023/04/21 07:19:06;;;;;;;;;;;;;;;12.80;57.46;92307.91;2058366;69;20042;-74
2023/04/21 07:21:34;;;;;;;;;;;;;;;13.27;58.91;92314.97;2055062;69;20054;-76
2023/04/21 07:24:01;;;;;;;;;;;;;;;13.39;56.18;92307.78;2058432;69;20057;-74
2023/04/21 07:26:26;;;;;;;;;;;;;;;13.62;56.13;92298.16;2054902;69;20061;-74
2023/04/21 07:28:52;;;;;;;;;;;;;;;13.73;54.73;92305.69;2058166;69;20061;-76
2023/04/21 07:31:17;;;;;;;;;;;;;;;13.17;54.63;92296.19;2058222;69;20235;-75
2023/04/21 07:33:43;;;;;;;;;;;;;;;13.65;55.04;92296.88;2058443;69;20061;-77
2023/04/21 07:36:08;;;;;;;;;;;;;;;14.01;53.81;92296.94;2058456;69;20049;-75
2023/04/21 07:38:34;;;;;;;;;;;;;;;14.64;52.78;92298.81;2058276;69;20236;-76
2023/04/21 07:41:00;;;;;;;;;;;;;;;14.80;52.20;92293.03;2058262;69;20086;-76
2023/04/21 07:43:25;;;;;;;;;;;;;;;14.94;50.98;92291.50;2058423;69;20239;-77
2023/04/21 07:45:51;;;;;;;;;;;;;;;15.23;50.17;92295.38;2058184;69;20054;-74
2023/04/21 07:48:17;;;;;;;;;;;;;;;15.50;47.41;92280.06;2058241;69;20427;-76
2023/04/21 07:50:42;;;;;;;;;;;;;;;15.74;48.64;92283.06;2058383;69;20573;-74
2023/04/21 07:53:08;;;;;;;;;;;;;;;15.47;48.00;92289.88;2058400;69;20050;-72
2023/04/21 07:55:35;;;;;;;;;;;;;;;15.80;48.57;92282.53;2054967;69;20053;-72
2023/04/21 07:58:02;;;;;;;;;;;;;;;16.07;46.93;92282.06;2055003;69;20057;-74
2023/04/21 08:00:27;;;;;;;;;;;;;;;16.57;46.71;92285.13;2058384;69;20050;-74
2023/04/21 08:02:53;;;;;;;;;;;;;;;16.59;46.48;92281.63;2058174;69;20061;-75
2023/04/21 08:05:18;;;;;;;;;;;;;;;16.85;45.12;92285.31;2057954;69;20183;-74
2023/04/21 08:07:44;;;;;;;;;;;;;;;16.94;44.23;92289.84;2054776;69;20628;-72
2023/04/21 08:10:09;;;;;;;;;;;;;;;17.48;44.90;92289.31;2058454;69;20050;-73
2023/04/21 08:12:35;;;;;;;;;;;;;;;16.92;41.90;92295.50;2058095;69;20060;-75
2023/04/21 08:18:30;;;;;;;;;;;;;;;17.76;43.06;92290.13;2058175;69;20255;-75
2023/04/21 08:20:56;;;;;;;;;;;;;;;18.25;42.22;92290.72;2058052;69;20050;-74
2023/04/21 08:23:22;;;;;;;;;;;;;;;18.21;42.64;92287.75;2058112;69;20076;-73
2023/04/21 08:25:47;;;;;;;;;;;;;;;17.81;40.96;92285.28;2058198;69;20429;-75
2023/04/21 08:28:14;;;;;;;;;;;;;;;18.37;40.71;92273.94;2058149;69;20077;-75
2023/04/21 08:30:40;;;;;;;;;;;;;;;17.81;40.03;92276.75;2057957;69;20053;-75
2023/04/21 08:33:07;;;;;;;;;;;;;;;18.86;40.26;92272.28;2058073;69;20058;-75
2023/04/21 08:35:33;;;;;;;;;;;;;;;19.30;38.81;92269.72;2058349;69;20047;-76
2023/04/21 08:37:58;;;;;;;;;;;;;;;19.60;38.61;92274.63;2058344;69;20050;-76
2023/04/21 08:40:32;;;;;;;;;;;;;;;20.64;37.62;92278.75;2043667;69;20172;-76
2023/04/21 08:42:57;;;;;;;;;;;;;;;20.54;38.23;92282.16;2038854;70;20142;-76
2023/04/21 08:45:23;;;;;;;;;;;;;;;21.04;36.71;92282.25;2038835;70;20499;-76
2023/04/21 08:47:49;;;;;;;;;;;;;;;21.83;35.74;92281.94;2038957;70;20052;-76
2023/04/21 08:50:15;;;;;;;;;;;;;;;20.91;35.57;92277.03;2051473;69;20590;-76
2023/04/21 08:52:40;;;;;;;;;;;;;;;20.73;35.41;92283.91;2038660;70;20142;-75
2023/04/21 08:55:06;;;;;;;;;;;;;;;20.01;36.39;92276.16;2038867;70;20052;-75
2023/04/21 08:57:31;;;;;;;;;;;;;;;21.40;35.47;92277.78;2039004;69;20427;-75
2023/04/21 08:59:57;;;;;;;;;;;;;;;20.52;35.00;92279.97;2038824;70;20051;-73
2023/04/21 09:02:22;;;;;;;;;;;;;;;20.89;34.33;92272.00;2038470;70;20092;-74
2023/04/21 09:04:53;;;;;;;;;;;;;;;22.45;35.29;92271.88;2038767;70;20424;-73
2023/04/21 09:07:32;;;;;;;;;;;;;;;22.88;34.20;92275.16;2038882;70;20052;-73
2023/04/21 09:09:59;;;;;;;;;;;;;;;22.46;32.82;92276.94;2038850;70;20439;-74
2023/04/21 09:12:24;;;;;;;;;;;;;;;23.21;33.15;92274.00;2038792;70;20056;-73
2023/04/21 09:14:50;;;;;;;;;;;;;;;22.35;33.86;92268.91;2035581;70;20059;-75
2023/04/21 09:17:16;;;;;;;;;;;;;;;22.15;33.02;92264.41;2038759;70;20117;-76
2023/04/21 09:19:42;;;;;;;;;;;;;;;22.17;33.65;92269.44;2038796;70;20048;-76
2023/04/21 09:22:07;;;;;;;;;;;;;;;23.00;33.17;92267.38;2038499;70;20491;-75
2023/04/21 09:24:33;;;;;;;;;;;;;;;23.41;31.61;92261.91;2038839;70;20068;-76
2023/04/21 09:27:01;;;;;;;;;;;;;;;21.72;31.62;92257.44;2038756;70;20056;-76
2023/04/21 09:29:27;;;;;;;;;;;;;;;22.05;31.16;92264.28;2038888;70;20060;-73
2023/04/21 09:31:52;;;;;;;;;;;;;;;22.14;30.82;92262.97;2038721;70;20074;-73
2023/04/21 09:34:23;;;;;;;;;;;;;;;21.04;31.99;92253.63;2038827;70;20119;-75
2023/04/21 09:36:58;;;;;;;;;;;;;;;19.91;34.36;92249.53;2038738;70;20056;-75
2023/04/21 09:39:23;;;;;;;;;;;;;;;20.35;33.69;92249.66;2038667;70;20452;-74
2023/04/21 09:41:49;;;;;;;;;;;;;;;21.90;32.07;92248.31;2038782;70;20048;-75
2023/04/21 09:44:16;;;;;;;;;;;;;;;23.02;31.33;92258.78;2038697;70;20051;-74
2023/04/21 09:46:43;;;;;;;;;;;;;;;23.36;31.06;92260.44;2038546;70;20171;-76
2023/04/21 09:49:10;;;;;;;;;;;;;;;22.40;31.90;92256.78;2038212;70;20044;-76
2023/04/21 09:51:36;;;;;;;;;;;;;;;24.14;28.43;92247.19;2038462;70;20163;-77
2023/04/21 09:54:14;;;;;;;;;;;;;;;23.94;27.91;92244.97;2039024;70;20139;-78
2023/04/21 09:56:40;;;;;;;;;;;;;;;22.36;30.08;92245.28;2035808;70;20435;-77
2023/04/21 09:59:06;;;;;;;;;;;;;;;22.75;29.30;92246.34;2039078;70;20051;-78
2023/04/21 10:01:34;;;;;;;;;;;;;;;22.05;30.79;92236.34;2039048;70;20053;-77
2023/04/21 10:04:00;;;;;;;;;;;;;;;25.42;28.80;92246.59;2039077;70;20052;-77
2023/04/21 10:06:26;;;;;;;;;;;;;;;25.16;29.24;92235.13;2039008;70;20044;-76
2023/04/21 10:08:53;;;;;;;;;;;;;;;25.17;29.11;92242.34;2039036;70;20059;-76
2023/04/21 10:11:19;;;;;;;;;;;;;;;24.47;29.13;92232.94;2038993;70;20052;-78
2023/04/21 10:13:44;;;;;;;;;;;;;;;24.19;28.33;92227.78;2039192;70;20059;-77
2023/04/21 10:16:10;;;;;;;;;;;;;;;24.09;28.69;92225.59;2039145;70;20116;-75
2023/04/21 10:18:37;;;;;;;;;;;;;;;24.28;28.08;92232.88;2039199;70;20051;-77
2023/04/21 10:21:02;;;;;;;;;;;;;;;24.96;27.72;92227.91;2039065;70;20051;-77
2023/04/21 10:23:34;;;;;;;;;;;;;;;26.13;26.21;92219.03;2039144;70;20118;-79
2023/04/21 10:26:05;;;;;;;;;;;;;;;25.33;26.93;92213.50;2039199;70;20060;-77
2023/04/21 10:28:43;;;;;;;;;;;;;;;27.32;25.55;92220.41;2039263;70;20495;-78
2023/04/21 10:31:18;;;;;;;;;;;;;;;26.69;25.08;92211.50;2039190;69;20058;-76
2023/04/21 10:34:03;;;;;;;;;;;;;;;27.22;25.94;92222.66;2039073;70;20059;-78
2023/04/21 10:36:28;;;;;;;;;;;;;;;27.57;22.94;92217.25;2039194;70;20084;-77
2023/04/21 10:38:55;;;;;;;;;;;;;;;28.88;23.36;92216.34;2038953;70;20139;-78
2023/04/21 10:41:27;;;;;;;;;;;;;;;29.73;20.78;92213.50;2039097;70;20052;-78
2023/04/21 10:43:53;;;;;;;;;;;;;;;29.34;21.18;92202.59;2038985;70;20537;-79
2023/04/21 10:46:38;;;;;;;;;;;;;;;33.82;18.20;92207.94;2039274;69;20059;-76
2023/04/21 10:49:10;;;;;;;;;;;;;;;35.32;17.21;92209.69;2039083;70;20075;-76
2023/04/21 10:51:59;;;;;;;;;;;;;;;36.72;15.99;92210.38;2039009;70;20438;-73
2023/04/21 10:54:25;;;;;;;;;;;;;;;37.24;16.26;92224.09;2037685;69;20056;-79
2023/04/21 10:56:52;;;;;;;;;;;;;;;37.34;17.36;92209.69;2039082;70;20044;-77
2023/04/21 10:59:18;;;;;;;;;;;;;;;35.42;16.08;92193.22;2039109;70;20052;-77
2023/04/21 11:01:43;;;;;;;;;;;;;;;34.06;17.42;92185.94;2038914;70;20546;-76
2023/04/21 11:04:15;;;;;;;;;;;;;;;35.72;15.60;92197.13;2038910;70;20081;-77
2023/04/21 11:06:41;;;;;;;;;;;;;;;40.67;14.70;92196.81;2039037;70;20052;-75
2023/04/21 11:09:06;;;;;;;;;;;;;;;39.18;13.84;92197.31;2039074;70;20058;-75
2023/04/21 11:11:32;;;;;;;;;;;;;;;40.75;13.83;92199.97;2039029;70;20435;-77
2023/04/21 11:14:01;;;;;;;;;;;;;;;35.09;14.89;92185.78;2039027;70;20059;-77
2023/04/21 11:16:26;;;;;;;;;;;;;;;40.26;14.14;92188.19;2038888;70;20465;-77
2023/04/21 11:18:51;;;;;;;;;;;;;;;37.25;15.24;92179.31;2038873;69;20447;-76
2023/04/21 11:21:20;;;;;;;;;;;;;;;33.11;16.92;92166.53;2038910;70;20389;-79
2023/04/21 11:27:15;;;;;;;;;;;;;;;38.62;12.82;92184.84;2038869;70;20051;-81
2023/04/21 11:29:40;;;;;;;;;;;;;;;32.18;17.27;92173.69;2038906;70;20056;-76
2023/04/21 11:32:06;;;;;;;;;;;;;;;32.07;17.87;92178.34;2038804;70;20123;-77
2023/04/21 11:34:32;;;;;;;;;;;;;;;29.67;18.70;92161.44;2038221;70;20076;-79
2023/04/21 11:36:57;;;;;;;;;;;;;;;29.16;19.76;92151.47;2038511;70;20055;-76
2023/04/21 11:39:23;;;;;;;;;;;;;;;32.17;18.28;92172.25;2038588;70;20075;-79
2023/04/21 11:41:49;;;;;;;;;;;;;;;29.32;18.83;92151.19;2038975;70;20163;-81
2023/04/21 11:44:38;;;;;;;;;;;;;;;28.76;21.25;92144.13;2038952;70;20134;-79
2023/04/21 11:47:13;;;;;;;;;;;;;;;35.75;17.78;92166.28;2038765;70;20075;-78
2023/04/21 11:49:49;;;;;;;;;;;;;;;37.26;14.51;92168.28;2051573;69;20059;-78
2023/04/21 11:52:28;;;;;;;;;;;;;;;39.08;13.75;92162.56;2038614;70;20056;-77
2023/04/21 11:54:57;;;;;;;;;;;;;;;37.61;14.96;92170.94;2051537;70;20071;-76
2023/04/21 11:57:24;;;;;;;;;;;;;;;36.00;14.79;92160.78;2038791;70;20468;-77
2023/04/21 11:59:50;;;;;;;;;;;;;;;31.62;17.10;92159.91;2038936;70;20138;-75
2023/04/21 12:02:29;;;;;;;;;;;;;;;35.59;16.93;92153.75;2038627;70;20200;-77
2023/04/21 12:05:04;;;;;;;;;;;;;;;35.73;14.99;92157.56;2038799;70;20143;-76
2023/04/21 12:07:36;;;;;;;;;;;;;;;33.36;16.23;92154.78;2038902;70;20480;-76
2023/04/21 12:10:07;;;;;;;;;;;;;;;38.09;14.41;92163.41;2038874;70;20499;-78
2023/04/21 12:12:35;;;;;;;;;;;;;;;39.27;12.50;92157.09;2038950;70;20063;-77
2023/04/21 12:15:03;;;;;;;;;;;;;;;36.31;14.75;92156.53;2039018;70;20048;-77
2023/04/21 12:21:00;;;;;;;;;;;;;;;42.61;11.82;92170.88;2038893;70;20048;-78
2023/04/21 12:23:25;;;;;;;;;;;;;;;42.58;11.09;92171.88;2038986;70;20554;-78
2023/04/21 12:25:51;;;;;;;;;;;;;;;35.57;14.00;92153.84;2038837;70;20049;-77
2023/04/21 12:28:17;;;;;;;;;;;;;;;41.37;11.65;92173.25;2039043;70;20122;-78
2023/04/21 12:30:42;;;;;;;;;;;;;;;37.92;12.80;92156.97;2039074;70;20060;-78
2023/04/21 12:33:08;;;;;;;;;;;;;;;34.30;16.21;92149.28;2038732;70;20056;-78
2023/04/21 12:35:34;;;;;;;;;;;;;;;32.70;16.83;92152.50;2038887;69;20078;-79
2023/04/21 12:38:00;;;;;;;;;;;;;;;33.83;15.90;92142.22;2038899;70;20060;-78
2023/04/21 12:40:26;;;;;;;;;;;;;;;33.46;16.04;92142.78;2038859;70;20055;-79
2023/04/21 12:42:51;;;;;;;;;;;;;;;33.00;16.93;92145.03;2038888;70;20040;-78
2023/04/21 12:45:17;;;;;;;;;;;;;;;35.86;14.33;92149.69;2038999;69;20059;-79
2023/04/21 12:47:42;;;;;;;;;;;;;;;36.60;14.02;92144.22;2038686;70;20171;-76
2023/04/21 12:50:09;;;;;;;;;;;;;;;35.87;15.13;92151.81;2038979;70;20499;-77
2023/04/21 12:52:35;;;;;;;;;;;;;;;33.17;15.70;92145.19;2038803;70;20147;-77
2023/04/21 12:55:00;;;;;;;;;;;;;;;30.48;17.18;92124.19;2038851;70;20121;-76
2023/04/21 12:57:26;;;;;;;;;;;;;;;30.84;18.62;92129.19;2038746;70;20052;-77
2023/04/21 12:59:51;;;;;;;;;;;;;;;30.51;18.57;92134.28;2051681;70;20496;-78
2023/04/21 13:02:17;;;;;;;;;;;;;;;30.05;17.92;92125.09;2038798;70;20433;-78
2023/04/21 13:04:42;;;;;;;;;;;;;;;29.79;18.05;92117.69;2038949;70;20058;-78
2023/04/21 13:07:08;;;;;;;;;;;;;;;30.41;17.19;92123.63;2038840;70;20056;-77
2023/04/21 13:09:33;;;;;;;;;;;;;;;30.60;17.65;92121.00;2038797;70;20433;-77
2023/04/21 13:12:00;;;;;;;;;;;;;;;29.61;18.31;92119.47;2038874;70;20052;-77
2023/04/21 13:14:26;;;;;;;;;;;;;;;35.19;14.57;92123.22;2038810;70;20135;-76
2023/04/21 13:20:20;;;;;;;;;;;;;;;29.63;16.77;92107.13;2038811;70;20047;-78
2023/04/21 13:22:45;;;;;;;;;;;;;;;29.37;17.67;92108.34;2038933;70;20081;-78
2023/04/21 13:25:10;;;;;;;;;;;;;;;28.79;18.09;92108.59;2038813;70;20059;-78